Time;durP1;ratioP1;P1;durP2;ratioP2;P2;SDS_P1;SDS_P2;PMS_P1;PMS_P2;Temp;Humidity;BMP_temperature;BMP_pressure;BME280_temperature;BME280_humidity;BME280_pressure;Samples;Min_cycle;Max_cycle;Signal;HPM_P1;HPM_P2
2023/08/30 00:00:25;;;;;;;5.87;5.50;;;;;;;12.24;100.00;96262.13;5012372;28;20216;-56
2023/08/30 00:02:53;;;;;;;6.17;5.67;;;;;;;12.24;100.00;96262.13;5015631;28;20209;-58
2023/08/30 00:05:22;;;;;;;6.07;5.67;;;;;;;12.25;100.00;96253.13;5015357;28;20228;-56
2023/08/30 00:07:50;;;;;;;5.90;5.50;;;;;;;12.25;100.00;96264.56;5015301;28;20223;-59
2023/08/30 00:10:18;;;;;;;6.03;5.60;;;;;;;12.21;100.00;96267.88;5013882;28;20208;-59
2023/08/30 00:12:46;;;;;;;5.87;5.43;;;;;;;12.08;100.00;96251.03;5012378;28;20266;-59
2023/08/30 00:15:14;;;;;;;6.57;6.17;;;;;;;12.20;100.00;96266.25;5015450;28;20273;-59
2023/08/30 00:17:42;;;;;;;6.10;5.70;;;;;;;12.19;100.00;96264.63;5011751;28;20808;-59
2023/08/30 00:20:11;;;;;;;6.73;6.33;;;;;;;12.08;100.00;96245.72;5013973;28;20212;-61
2023/08/30 00:22:40;;;;;;;5.97;5.63;;;;;;;12.15;100.00;96269.56;5017789;28;20278;-59
2023/08/30 00:25:09;;;;;;;6.43;5.83;;;;;;;12.14;100.00;96271.38;5015100;28;20255;-60
2023/08/30 00:27:36;;;;;;;8.50;7.73;;;;;;;12.13;100.00;96276.94;5016312;28;20220;-60
2023/08/30 00:30:05;;;;;;;8.13;7.53;;;;;;;12.10;100.00;96278.16;5011388;28;20258;-58
2023/08/30 00:32:33;;;;;;;7.40;6.93;;;;;;;12.05;100.00;96275.34;5015205;28;20653;-59
2023/08/30 00:35:01;;;;;;;6.97;6.57;;;;;;;12.09;100.00;96273.06;5013224;28;20743;-59
2023/08/30 00:37:28;;;;;;;6.97;6.40;;;;;;;12.05;100.00;96280.66;5014944;28;20248;-59
2023/08/30 00:39:59;;;;;;;11.03;7.33;;;;;;;12.05;100.00;96278.00;5008379;28;20286;-58
2023/08/30 00:42:27;;;;;;;7.07;6.67;;;;;;;12.05;100.00;96280.66;5014587;28;20665;-59
2023/08/30 00:44:55;;;;;;;10.07;7.47;;;;;;;11.98;100.00;96279.88;5013462;28;20228;-59
2023/08/30 00:47:22;;;;;;;9.00;8.40;;;;;;;12.03;100.00;96290.69;5014911;28;20317;-58
2023/08/30 00:49:50;;;;;;;9.47;8.63;;;;;;;11.96;100.00;96288.03;5010512;28;20307;-62
2023/08/30 00:52:18;;;;;;;8.80;8.10;;;;;;;11.93;100.00;96287.63;5012771;28;20473;-59
2023/08/30 00:54:46;;;;;;;8.63;8.03;;;;;;;11.94;100.00;96289.28;5013948;28;20560;-56
2023/08/30 00:57:15;;;;;;;9.80;9.10;;;;;;;11.94;100.00;96287.44;5015772;28;20312;-59
2023/08/30 00:59:43;;;;;;;9.47;8.77;;;;;;;11.83;100.00;96277.50;5014842;28;20284;-56
2023/08/30 01:02:11;;;;;;;8.53;7.87;;;;;;;11.92;100.00;96286.00;5017229;28;20253;-56
2023/08/30 01:04:38;;;;;;;9.27;8.13;;;;;;;11.96;100.00;96292.53;5009600;28;20228;-57
2023/08/30 01:07:06;;;;;;;8.20;7.70;;;;;;;11.97;100.00;96283.56;5014778;28;20208;-55
2023/08/30 01:09:34;;;;;;;8.03;7.53;;;;;;;11.92;100.00;96281.53;5013498;28;20289;-58
2023/08/30 01:12:06;;;;;;;8.03;7.43;;;;;;;12.02;100.00;96295.16;5015712;28;20200;-56
2023/08/30 01:14:40;;;;;;;8.90;8.30;;;;;;;12.01;100.00;96303.34;5020030;28;20193;-58
2023/08/30 01:17:08;;;;;;;9.20;8.57;;;;;;;12.04;100.00;96296.78;5016106;28;20265;-57
2023/08/30 01:19:43;;;;;;;9.10;8.40;;;;;;;12.07;100.00;96302.50;5019801;28;20209;-56
2023/08/30 01:22:16;;;;;;;9.03;8.43;;;;;;;12.01;100.00;96300.69;5018582;28;20539;-57
2023/08/30 01:24:47;;;;;;;8.93;8.30;;;;;;;11.99;100.00;96303.53;5018886;28;20302;-57
2023/08/30 01:27:17;;;;;;;8.70;8.10;;;;;;;11.98;100.00;96296.59;5019940;28;20235;-59
2023/08/30 01:29:45;;;;;;;10.13;9.43;;;;;;;11.99;100.00;96295.56;5015050;28;20681;-57
2023/08/30 01:32:13;;;;;;;9.33;8.63;;;;;;;11.98;100.00;96291.28;5012755;28;20761;-57
2023/08/30 01:34:42;;;;;;;10.23;9.50;;;;;;;11.92;100.00;96288.66;5019149;28;20294;-58
2023/08/30 01:37:10;;;;;;;9.23;8.50;;;;;;;11.91;100.00;96284.38;5017203;28;20295;-60
2023/08/30 01:39:39;;;;;;;10.00;9.20;;;;;;;11.77;100.00;96279.16;5020187;28;20284;-59
2023/08/30 01:42:08;;;;;;;10.10;9.20;;;;;;;11.91;100.00;96289.69;5017781;28;20829;-55
2023/08/30 01:44:39;;;;;;;9.37;8.60;;;;;;;11.87;100.00;96294.63;5020120;28;20396;-57
2023/08/30 01:47:07;;;;;;;9.23;8.63;;;;;;;11.84;100.00;96290.56;5015168;28;20791;-60
2023/08/30 01:49:37;;;;;;;8.53;7.93;;;;;;;11.83;100.00;96288.94;5017201;28;20196;-57
2023/08/30 01:52:05;;;;;;;8.73;8.03;;;;;;;11.86;100.00;96293.81;5020148;28;20297;-56
2023/08/30 01:54:33;;;;;;;8.50;7.90;;;;;;;11.84;100.00;96293.22;5017233;28;20212;-56
2023/08/30 01:57:01;;;;;;;8.50;7.73;;;;;;;11.86;100.00;96299.13;5020738;28;20196;-58
2023/08/30 01:59:30;;;;;;;8.07;7.57;;;;;;;11.91;100.00;96301.13;5017637;28;20952;-56
2023/08/30 02:01:59;;;;;;;8.00;7.40;;;;;;;11.91;100.00;96300.31;5018206;28;20236;-57
2023/08/30 02:04:27;;;;;;;8.37;7.77;;;;;;;11.95;100.00;96296.22;5016073;28;20223;-57
2023/08/30 02:06:58;;;;;;;7.97;7.47;;;;;;;11.95;100.00;96296.22;5017104;28;20223;-55
2023/08/30 02:09:29;;;;;;;7.37;6.87;;;;;;;11.95;100.00;96298.88;5014738;28;20300;-58
2023/08/30 02:11:57;;;;;;;7.57;7.07;;;;;;;11.94;100.00;96299.91;5015664;28;20236;-56
2023/08/30 02:14:27;;;;;;;7.83;7.23;;;;;;;11.93;100.00;96299.09;5015595;28;20216;-56
2023/08/30 02:16:56;;;;;;;8.07;7.57;;;;;;;11.93;100.00;96301.72;5016801;28;20200;-59
2023/08/30 02:19:25;;;;;;;8.97;8.17;;;;;;;11.96;100.00;96303.16;5019986;28;20232;-59
2023/08/30 02:21:53;;;;;;;7.90;7.30;;;;;;;11.97;100.00;96302.13;5015583;28;20220;-58
2023/08/30 02:24:20;;;;;;;8.90;8.30;;;;;;;11.94;100.00;96295.41;5018630;28;20263;-57
2023/08/30 02:26:48;;;;;;;8.40;7.80;;;;;;;11.94;100.00;96292.75;5018112;28;20232;-58
2023/08/30 02:29:15;;;;;;;8.23;7.40;;;;;;;11.95;100.00;96298.88;5016142;28;20279;-58
2023/08/30 02:31:43;;;;;;;8.50;7.77;;;;;;;11.93;100.00;96299.09;5014122;28;20213;-56
2023/08/30 02:34:11;;;;;;;8.50;7.90;;;;;;;11.92;100.00;96292.16;5015388;28;20204;-57
2023/08/30 02:36:40;;;;;;;7.27;6.77;;;;;;;11.92;100.00;96293.97;5017356;28;20209;-58
2023/08/30 02:39:08;;;;;;;7.50;7.00;;;;;;;11.87;100.00;96284.81;5012305;28;20399;-57
2023/08/30 02:41:35;;;;;;;6.87;6.47;;;;;;;11.85;100.00;96291.38;5006554;28;20759;-59
2023/08/30 02:44:03;;;;;;;7.20;6.70;;;;;;;11.85;100.00;96283.41;4997143;28;20232;-57
2023/08/30 02:46:31;;;;;;;6.83;6.43;;;;;;;11.87;100.00;96281.34;5001858;28;20316;-59
2023/08/30 02:48:58;;;;;;;7.37;6.87;;;;;;;11.88;100.00;96285.66;4994236;28;20331;-58
2023/08/30 02:51:26;;;;;;;7.63;7.03;;;;;;;11.87;100.00;96284.81;4874903;28;20775;-58
2023/08/30 02:53:55;;;;;;;6.97;6.53;;;;;;;11.86;100.00;96280.53;4992388;28;20217;-59
2023/08/30 02:56:25;;;;;;;7.37;6.97;;;;;;;11.86;100.00;96287.69;4942170;28;20839;-58
2023/08/30 02:58:52;;;;;;;7.23;6.73;;;;;;;11.86;100.00;96288.50;4995092;28;20602;-58
2023/08/30 03:01:20;;;;;;;7.80;7.20;;;;;;;11.85;100.00;96284.22;4992445;28;20205;-57
2023/08/30 03:03:48;;;;;;;6.70;6.30;;;;;;;11.80;100.00;96284.06;4996830;28;20765;-59
2023/08/30 03:06:16;;;;;;;7.10;6.30;;;;;;;11.85;100.00;96283.41;4941782;28;21022;-59
2023/08/30 03:08:44;;;;;;;6.50;6.10;;;;;;;11.84;100.00;96274.63;4996909;28;20225;-60
2023/08/30 03:11:13;;;;;;;7.40;6.90;;;;;;;11.75;100.00;96265.31;4940877;28;20948;-60
2023/08/30 03:13:41;;;;;;;7.73;7.23;;;;;;;11.80;100.00;96265.47;4993883;28;20213;-57
2023/08/30 03:16:12;;;;;;;6.80;6.40;;;;;;;11.83;100.00;96285.47;4990660;28;20205;-60
2023/08/30 03:18:40;;;;;;;7.93;7.33;;;;;;;11.83;100.00;96280.97;4996369;28;20263;-57
2023/08/30 03:21:09;;;;;;;7.10;6.70;;;;;;;11.77;100.00;96279.16;4951424;28;20209;-59
2023/08/30 03:23:37;;;;;;;7.97;7.43;;;;;;;11.76;100.00;96274.88;4995973;28;20200;-56
2023/08/30 03:26:13;;;;;;;7.23;6.83;;;;;;;11.73;100.00;96276.13;4899243;28;21025;-58
2023/08/30 03:28:44;;;;;;;7.63;7.13;;;;;;;11.73;100.00;96277.97;4991746;28;20224;-55
2023/08/30 03:31:14;;;;;;;7.47;7.07;;;;;;;11.70;100.00;96267.78;4991317;28;20764;-56
2023/08/30 03:33:42;;;;;;;7.83;7.37;;;;;;;11.68;100.00;96275.94;4993038;28;20231;-55
2023/08/30 03:36:13;;;;;;;7.80;7.13;;;;;;;11.68;100.00;96272.50;4989543;28;20200;-58
2023/08/30 03:38:41;;;;;;;8.33;7.73;;;;;;;11.57;100.00;96268.69;4991374;28;20252;-58
2023/08/30 03:41:09;;;;;;;8.30;7.60;;;;;;;11.68;100.00;96285.75;4989764;28;20370;-58
2023/08/30 03:43:38;;;;;;;7.63;7.03;;;;;;;11.65;100.00;96283.53;4992754;28;20249;-58
2023/08/30 03:46:06;;;;;;;7.03;6.53;;;;;;;11.51;100.00;96278.28;4950905;28;20607;-58
2023/08/30 03:48:34;;;;;;;7.27;6.77;;;;;;;11.60;100.00;96288.69;4991019;28;20228;-56
2023/08/30 03:51:02;;;;;;;6.33;5.80;;;;;;;11.48;100.00;96275.25;4957174;28;22678;-57
2023/08/30 03:53:30;;;;;;;7.37;6.77;;;;;;;11.60;100.00;96297.44;4985052;28;20216;-56
2023/08/30 03:55:59;;;;;;;6.83;6.23;;;;;;;11.60;100.00;96293.97;4991553;28;20894;-60
2023/08/30 03:58:26;;;;;;;6.60;6.20;;;;;;;11.63;100.00;96294.34;4992178;28;20216;-57
2023/08/30 04:00:59;;;;;;;7.07;6.67;;;;;;;11.64;100.00;96301.28;4924645;28;21494;-59
2023/08/30 04:03:28;;;;;;;7.23;6.73;;;;;;;11.57;100.00;96301.34;4966861;28;20689;-58
2023/08/30 04:05:57;;;;;;;8.03;7.53;;;;;;;11.61;100.00;96295.59;4992880;28;20213;-59
2023/08/30 04:08:25;;;;;;;7.63;7.13;;;;;;;11.62;100.00;96305.19;4993289;28;20779;-55
2023/08/30 04:10:53;;;;;;;7.03;6.43;;;;;;;11.60;100.00;96304.59;4995051;28;21308;-58
2023/08/30 04:13:21;;;;;;;7.30;6.67;;;;;;;11.62;100.00;96310.50;4997496;28;20208;-56
2023/08/30 04:15:49;;;;;;;6.70;6.20;;;;;;;11.62;100.00;96310.50;4997039;28;20209;-57
2023/08/30 04:18:18;;;;;;;7.17;6.67;;;;;;;11.53;100.00;96304.63;4991644;28;20278;-57
2023/08/30 04:20:47;;;;;;;7.33;6.83;;;;;;;11.51;100.00;96302.16;4977230;28;20286;-60
2023/08/30 04:23:15;;;;;;;7.57;6.87;;;;;;;11.58;100.00;96299.47;4961060;28;20233;-60
2023/08/30 04:25:43;;;;;;;6.97;6.47;;;;;;;11.58;100.00;96299.47;4982625;28;20991;-57
2023/08/30 04:28:11;;;;;;;6.57;6.07;;;;;;;11.44;100.00;96273.03;4958902;28;20312;-55
2023/08/30 04:30:38;;;;;;;7.00;6.50;;;;;;;11.59;100.00;96295.81;4991809;28;20205;-57
2023/08/30 04:33:07;;;;;;;5.80;5.47;;;;;;;11.54;100.00;96304.38;4991378;28;20294;-59
2023/08/30 04:35:36;;;;;;;7.20;6.70;;;;;;;11.53;100.00;96300.09;4877615;28;20241;-58
2023/08/30 04:38:04;;;;;;;7.13;6.63;;;;;;;11.52;100.00;96298.47;4997655;28;20698;-58
2023/08/30 04:40:33;;;;;;;6.40;6.00;;;;;;;11.59;100.00;96309.06;4992262;28;20324;-60
2023/08/30 04:43:00;;;;;;;7.00;6.60;;;;;;;11.62;100.00;96305.19;4995657;28;20420;-58
2023/08/30 04:45:29;;;;;;;7.03;6.63;;;;;;;11.64;100.00;96308.44;4967373;28;20209;-58
2023/08/30 04:47:57;;;;;;;6.80;6.40;;;;;;;11.64;100.00;96301.28;4904909;28;20235;-56
2023/08/30 04:50:25;;;;;;;6.67;6.27;;;;;;;11.68;100.00;96304.34;4870931;28;20340;-57
2023/08/30 04:52:54;;;;;;;7.07;6.47;;;;;;;11.69;100.00;96298.81;4998109;28;21085;-57
2023/08/30 04:55:22;;;;;;;6.13;5.70;;;;;;;11.71;100.00;96304.72;4942409;28;20331;-53
2023/08/30 04:57:50;;;;;;;6.40;5.90;;;;;;;11.74;100.00;96300.84;4999735;28;20295;-60
2023/08/30 05:00:19;;;;;;;6.90;6.40;;;;;;;11.72;100.00;96294.91;4943455;28;20267;-60
2023/08/30 05:02:47;;;;;;;6.27;5.80;;;;;;;11.76;100.00;96290.81;5001555;28;20604;-60
2023/08/30 05:05:15;;;;;;;7.17;6.67;;;;;;;11.80;100.00;96293.88;4895754;28;20305;-58
2023/08/30 05:07:43;;;;;;;9.40;8.70;;;;;;;11.85;100.00;96294.03;5004066;28;20225;-56
2023/08/30 05:10:12;;;;;;;7.40;7.00;;;;;;;11.92;100.00;96309.91;4996610;28;20209;-55
2023/08/30 05:12:42;;;;;;;7.87;7.27;;;;;;;11.95;100.00;96302.34;5000771;28;20229;-55
2023/08/30 05:15:10;;;;;;;7.27;6.87;;;;;;;11.99;100.00;96305.38;4982784;28;20225;-55
2023/08/30 05:17:38;;;;;;;7.20;6.73;;;;;;;12.04;100.00;96299.44;4999147;28;20267;-56
2023/08/30 05:20:07;;;;;;;7.03;6.57;;;;;;;12.08;100.00;96301.47;4996210;28;20639;-57
2023/08/30 05:22:34;;;;;;;7.03;6.63;;;;;;;12.07;100.00;96299.84;4935585;28;20200;-55
2023/08/30 05:25:02;;;;;;;6.90;6.50;;;;;;;12.10;100.00;96301.22;4998994;28;20331;-56
2023/08/30 05:27:31;;;;;;;6.97;6.17;;;;;;;12.11;100.00;96292.25;4943156;28;20229;-55
2023/08/30 05:29:59;;;;;;;7.53;6.80;;;;;;;12.05;100.00;96275.34;4999476;28;20239;-55
2023/08/30 05:32:27;;;;;;;6.57;6.17;;;;;;;12.23;100.00;96295.00;4938653;28;20299;-58
2023/08/30 05:34:54;;;;;;;7.43;6.93;;;;;;;12.20;100.00;96295.44;4998979;28;20596;-57
2023/08/30 05:37:22;;;;;;;6.60;6.20;;;;;;;12.24;100.00;96297.47;4878359;28;20295;-57
2023/08/30 05:39:50;;;;;;;6.57;6.17;;;;;;;12.17;100.00;96288.75;4998096;28;20291;-55
2023/08/30 05:42:17;;;;;;;7.87;7.00;;;;;;;12.26;100.00;96302.53;4999765;28;20232;-59
2023/08/30 05:44:46;;;;;;;6.50;6.00;;;;;;;12.21;100.00;96292.59;5001631;28;20296;-58
2023/08/30 05:47:15;;;;;;;6.70;5.97;;;;;;;12.18;100.00;96298.34;4995053;28;20492;-54
2023/08/30 05:49:42;;;;;;;7.33;6.63;;;;;;;12.30;100.00;96290.47;4996786;28;20209;-57
2023/08/30 05:52:10;;;;;;;7.20;6.70;;;;;;;12.37;100.00;96291.25;4995533;28;20789;-58
2023/08/30 05:54:38;;;;;;;7.60;7.10;;;;;;;12.44;100.00;96293.81;4998117;28;20220;-56
2023/08/30 05:57:05;;;;;;;6.97;6.57;;;;;;;12.42;100.00;96286.09;4945377;28;20696;-57
2023/08/30 05:59:34;;;;;;;7.70;7.17;;;;;;;12.48;100.00;96275.63;4997528;28;20304;-59
2023/08/30 06:02:04;;;;;;;7.37;6.87;;;;;;;12.57;100.00;96282.25;4996543;28;20292;-61
2023/08/30 06:04:32;;;;;;;6.47;6.13;;;;;;;12.61;100.00;96280.78;4998571;28;20298;-59
2023/08/30 06:07:00;;;;;;;7.07;6.50;;;;;;;12.63;100.00;96283.25;4884758;28;20686;-61
2023/08/30 06:09:27;;;;;;;6.97;6.37;;;;;;;12.65;100.00;96286.50;4998661;28;21545;-60
2023/08/30 06:11:55;;;;;;;7.53;7.03;;;;;;;12.68;100.00;96292.16;4994514;28;20598;-55
2023/08/30 06:14:23;;;;;;;7.03;6.53;;;;;;;12.76;100.00;96287.63;4998595;28;20213;-58
2023/08/30 06:16:51;;;;;;;6.70;6.30;;;;;;;12.68;100.00;96284.19;4932860;28;20225;-55
2023/08/30 06:19:20;;;;;;;7.23;6.73;;;;;;;12.68;100.00;96288.72;4996913;28;20217;-55
2023/08/30 06:21:48;;;;;;;8.00;7.50;;;;;;;12.68;100.00;96291.38;4994571;28;20201;-55
2023/08/30 06:24:15;;;;;;;7.87;7.37;;;;;;;12.58;100.00;96297.19;4998381;28;20347;-56
2023/08/30 06:26:43;;;;;;;8.00;7.40;;;;;;;12.45;100.00;96296.28;4942053;28;20338;-60
2023/08/30 06:29:11;;;;;;;8.10;7.53;;;;;;;12.53;100.00;96307.66;4999420;28;20296;-57
2023/08/30 06:31:39;;;;;;;8.40;7.70;;;;;;;12.42;100.00;96302.03;4992389;28;20476;-58
2023/08/30 06:34:07;;;;;;;7.60;7.07;;;;;;;12.53;100.00;96297.03;4997666;28;20208;-57
2023/08/30 06:36:36;;;;;;;8.13;7.63;;;;;;;12.53;100.00;96289.88;4995370;28;20278;-58
2023/08/30 06:39:04;;;;;;;8.20;7.70;;;;;;;12.58;100.00;96294.53;4997819;28;20256;-58
2023/08/30 06:41:32;;;;;;;7.40;6.90;;;;;;;12.63;100.00;96289.34;4879509;28;20730;-56
2023/08/30 06:43:59;;;;;;;9.07;8.37;;;;;;;12.57;100.00;96299.03;4997691;28;20197;-56
2023/08/30 06:46:27;;;;;;;8.47;7.77;;;;;;;12.53;100.00;96297.03;4991752;28;20204;-57
2023/08/30 06:48:55;;;;;;;8.03;7.53;;;;;;;12.51;100.00;96293.78;4994424;28;20232;-58
2023/08/30 06:51:23;;;;;;;8.37;7.80;;;;;;;12.51;100.00;96293.78;4991380;28;20927;-60
2023/08/30 06:53:55;;;;;;;8.20;7.67;;;;;;;12.42;100.00;96286.09;4996465;28;20786;-59
2023/08/30 06:56:23;;;;;;;9.00;8.30;;;;;;;12.48;100.00;96287.03;4993140;28;20232;-58
2023/08/30 06:58:50;;;;;;;8.23;7.63;;;;;;;12.58;100.00;96289.22;4995992;28;20221;-60
2023/08/30 07:01:18;;;;;;;8.13;7.63;;;;;;;12.61;100.00;96290.63;4942982;28;20634;-60
2023/08/30 07:03:46;;;;;;;9.47;8.80;;;;;;;12.70;100.00;96287.47;4997783;28;20560;-56
2023/08/30 07:06:14;;;;;;;9.87;9.03;;;;;;;12.70;100.00;96286.66;4994936;28;20421;-60
2023/08/30 07:08:42;;;;;;;9.27;8.70;;;;;;;12.71;100.00;96293.59;4995340;28;20229;-61
2023/08/30 07:11:16;;;;;;;8.53;8.00;;;;;;;12.54;100.00;96283.53;4905239;28;20719;-58
2023/08/30 07:14:00;;;;;;;9.10;8.47;;;;;;;12.46;100.00;96286.44;4997131;28;20197;-56
2023/08/30 07:16:28;;;;;;;9.20;8.60;;;;;;;12.49;100.00;96277.25;4992218;28;20363;-53
2023/08/30 07:18:56;;;;;;;8.97;8.27;;;;;;;12.52;100.00;96284.78;4998360;28;20735;-58
2023/08/30 07:21:23;;;;;;;9.20;8.60;;;;;;;12.55;100.00;96290.47;4992176;28;21082;-57
2023/08/30 07:23:51;;;;;;;9.27;8.60;;;;;;;12.56;100.00;96284.13;4999325;28;20227;-54
2023/08/30 07:26:20;;;;;;;10.90;10.03;;;;;;;12.63;100.00;96291.22;4994397;28;20299;-59
2023/08/30 07:28:48;;;;;;;9.47;8.80;;;;;;;12.72;100.00;96284.59;5000528;28;20224;-59
2023/08/30 07:31:18;;;;;;;10.63;9.93;;;;;;;12.61;100.00;96280.78;4995820;28;20224;-58
2023/08/30 07:33:45;;;;;;;9.63;8.97;;;;;;;12.57;100.00;96279.59;4936554;28;20697;-56
2023/08/30 07:36:13;;;;;;;9.77;9.17;;;;;;;12.61;100.00;96288.75;4998190;28;20209;-60
2023/08/30 07:38:41;;;;;;;10.17;9.23;;;;;;;12.70;100.00;96282.16;4996395;28;20280;-59
2023/08/30 07:41:10;;;;;;;9.57;8.87;;;;;;;12.76;100.00;96298.25;5000919;28;20474;-56
2023/08/30 07:43:41;;;;;;;10.60;9.90;;;;;;;12.77;100.00;96287.38;4880770;28;20409;-59
2023/08/30 07:46:08;;;;;;;11.90;11.00;;;;;;;12.99;100.00;96290.44;5002205;28;20233;-58
2023/08/30 07:48:36;;;;;;;10.17;9.47;;;;;;;13.41;100.00;96287.09;4991910;28;20328;-58
2023/08/30 07:51:04;;;;;;;10.70;10.00;;;;;;;13.57;100.00;96284.88;4999684;28;20260;-52
2023/08/30 07:53:31;;;;;;;11.40;10.40;;;;;;;13.77;100.00;96273.16;4992091;28;20201;-57
2023/08/30 07:55:59;;;;;;;11.73;10.90;;;;;;;13.91;100.00;96273.78;4999220;28;20204;-56
2023/08/30 07:58:27;;;;;;;10.83;10.07;;;;;;;13.91;100.00;96249.81;4994000;28;20309;-60
2023/08/30 08:00:56;;;;;;;9.80;9.10;;;;;;;14.32;100.00;96269.44;4998451;28;20709;-60
2023/08/30 08:03:23;;;;;;;11.80;10.80;;;;;;;15.03;100.00;96269.44;4992658;28;20582;-61
2023/08/30 08:05:51;;;;;;;11.47;10.47;;;;;;;15.15;100.00;96263.25;4995950;28;20787;-59
2023/08/30 08:08:19;;;;;;;9.60;8.90;;;;;;;15.29;100.00;96267.28;4938805;28;20232;-61
2023/08/30 08:10:47;;;;;;;8.77;8.10;;;;;;;15.48;100.00;96256.44;4990649;28;20608;-59
2023/08/30 08:13:14;;;;;;;8.67;8.10;;;;;;;15.33;100.00;96254.28;4932035;28;20201;-55
2023/08/30 08:15:43;;;;;;;8.93;8.03;;;;;;;15.39;100.00;96253.31;4994674;28;20220;-58
2023/08/30 08:18:12;;;;;;;9.50;8.70;;;;;;;15.13;100.00;96252.03;4865831;28;26395;-59
2023/08/30 08:20:40;;;;;;;8.97;8.37;;;;;;;15.05;100.00;96261.19;4995883;28;20235;-56
2023/08/30 08:23:08;;;;;;;9.50;8.90;;;;;;;15.07;100.00;96253.75;4997604;28;20232;-58
2023/08/30 08:25:36;;;;;;;9.23;8.63;;;;;;;14.98;100.00;96255.19;5000578;28;20204;-59
2023/08/30 08:28:04;;;;;;;10.33;9.50;;;;;;;14.97;100.00;96254.38;4994185;28;20767;-53
2023/08/30 08:30:31;;;;;;;9.67;8.93;;;;;;;15.15;100.00;96250.75;4998850;28;20792;-55
2023/08/30 08:32:59;;;;;;;10.00;9.30;;;;;;;14.98;100.00;96248.00;4937944;28;20758;-58
2023/08/30 08:35:28;;;;;;;11.47;10.43;;;;;;;15.36;100.00;96247.66;4998976;28;20235;-57
2023/08/30 08:37:56;;;;;;;8.97;8.30;;;;;;;15.54;100.00;96246.69;4994413;28;20272;-55
2023/08/30 08:40:23;;;;;;;7.97;7.47;;;;;;;15.38;100.00;96245.56;4999670;28;20237;-59
2023/08/30 08:43:11;;;;;;;8.87;8.07;;;;;;;15.71;100.00;96244.84;4940537;28;22870;-57
2023/08/30 08:45:39;;;;;;;8.93;8.23;;;;;;;15.50;100.00;96241.00;4997556;28;20299;-56
2023/08/30 08:48:08;;;;;;;7.47;6.90;;;;;;;15.62;100.00;96236.41;4867209;28;22283;-58
2023/08/30 08:50:37;;;;;;;7.80;7.20;;;;;;;15.80;100.00;96234.59;4998498;28;20601;-55
2023/08/30 08:53:07;;;;;;;7.80;7.23;;;;;;;16.16;100.00;96245.91;4996097;28;20204;-57
2023/08/30 08:55:35;;;;;;;7.23;6.53;;;;;;;16.24;100.00;96236.66;4999875;28;20207;-53
2023/08/30 08:58:03;;;;;;;6.43;6.00;;;;;;;16.58;100.00;96236.63;4994012;28;20810;-57
2023/08/30 09:00:31;;;;;;;6.20;5.77;;;;;;;16.54;100.00;96232.03;4999238;28;20201;-57
2023/08/30 09:03:00;;;;;;;5.07;4.70;;;;;;;16.91;100.00;96234.94;4995563;28;20302;-56
2023/08/30 09:05:28;;;;;;;5.30;5.00;;;;;;;17.35;100.00;96230.66;5000303;28;20228;-57
2023/08/30 09:07:57;;;;;;;4.23;3.93;;;;;;;17.41;100.00;96232.31;4994724;28;21386;-58
2023/08/30 09:10:24;;;;;;;4.07;3.77;;;;;;;17.34;100.00;96235.22;5003726;28;20311;-56
2023/08/30 09:12:52;;;;;;;4.03;3.83;;;;;;;16.57;100.00;96235.00;4936812;28;20432;-59
2023/08/30 09:15:21;;;;;;;4.90;4.50;;;;;;;16.56;100.00;96240.59;4999085;28;20287;-57
2023/08/30 09:17:49;;;;;;;4.50;4.13;;;;;;;16.43;100.00;96231.06;4996588;28;20228;-58
2023/08/30 09:20:18;;;;;;;4.10;3.90;;;;;;;16.14;100.00;96233.81;5001677;28;20212;-60
2023/08/30 09:22:46;;;;;;;4.13;3.83;;;;;;;16.68;100.00;96232.50;4900663;28;20612;-59
2023/08/30 09:25:26;;;;;;;4.10;3.90;;;;;;;17.23;100.00;96222.75;4999225;28;20291;-59
2023/08/30 09:27:58;;;;;;;4.30;4.07;;;;;;;17.59;100.00;96233.06;4933809;28;20399;-60
2023/08/30 09:30:26;;;;;;;3.90;3.60;;;;;;;18.21;100.00;96222.91;4996384;28;20278;-59
2023/08/30 09:32:53;;;;;;;4.13;3.93;;;;;;;18.41;100.00;96219.56;4989082;28;20450;-59
2023/08/30 09:35:21;;;;;;;3.73;3.40;;;;;;;18.44;100.00;96212.88;5000992;28;20211;-58
2023/08/30 09:37:49;;;;;;;4.10;3.90;;;;;;;18.57;100.00;96225.03;4993972;28;20240;-58
2023/08/30 09:40:19;;;;;;;3.70;3.30;;;;;;;18.40;100.00;96217.13;4998793;28;20205;-58
2023/08/30 09:42:48;;;;;;;4.20;3.90;;;;;;;18.71;100.00;96222.69;4941831;28;21402;-61
2023/08/30 09:45:33;;;;;;;3.57;3.03;;;;;;;17.74;100.00;96214.44;4996217;28;20581;-60
2023/08/30 09:48:02;;;;;;;3.33;3.13;;;;;;;17.97;100.00;96222.41;4992334;28;20283;-61
2023/08/30 09:50:35;;;;;;;3.23;3.03;;;;;;;18.28;100.00;96220.81;5001190;28;20253;-60
2023/08/30 09:53:08;;;;;;;3.17;2.97;;;;;;;18.23;100.00;96218.13;4995901;28;20201;-59
2023/08/30 09:55:36;;;;;;;3.13;2.93;;;;;;;17.87;100.00;96220.47;4998824;28;20340;-58
2023/08/30 09:58:05;;;;;;;3.00;2.90;;;;;;;17.64;100.00;96222.38;4870054;28;20533;-58
2023/08/30 10:00:34;;;;;;;3.13;2.93;;;;;;;17.17;100.00;96213.03;5000575;28;20197;-59
2023/08/30 10:03:02;;;;;;;3.73;3.30;;;;;;;17.20;100.00;96201.84;4990994;28;20815;-59
2023/08/30 10:05:50;;;;;;;3.13;2.93;;;;;;;17.41;100.00;96215.47;4995936;28;20672;-55
2023/08/30 10:08:19;;;;;;;3.03;2.93;;;;;;;17.66;100.00;96217.59;4993759;28;20228;-59
2023/08/30 10:10:46;;;;;;;4.53;3.63;;;;;;;17.78;100.00;96206.72;4996966;28;20523;-56
2023/08/30 10:13:16;;;;;;;3.43;3.23;;;;;;;17.61;100.00;96212.97;4998716;28;20209;-56
2023/08/30 10:15:47;;;;;;;3.30;3.10;;;;;;;18.00;100.00;96206.63;5000135;28;20209;-59
2023/08/30 10:18:21;;;;;;;3.30;3.10;;;;;;;17.41;100.00;96208.22;4943050;28;20420;-59
2023/08/30 10:20:48;;;;;;;3.33;3.07;;;;;;;17.62;100.00;96197.72;5001057;28;20700;-59
2023/08/30 10:23:17;;;;;;;2.70;2.60;;;;;;;18.43;100.00;96205.91;4998093;28;20500;-58
2023/08/30 10:25:45;;;;;;;3.00;2.80;;;;;;;18.78;100.00;96210.69;4998086;28;20213;-61
2023/08/30 10:28:15;;;;;;;2.47;2.37;;;;;;;19.08;100.00;96192.31;4994766;28;20244;-59
2023/08/30 10:30:43;;;;;;;2.60;2.50;;;;;;;19.11;100.00;96196.31;4999851;28;20278;-60
2023/08/30 10:33:14;;;;;;;3.50;2.80;;;;;;;19.54;100.00;96191.63;4882587;28;20651;-57
2023/08/30 10:35:48;;;;;;;2.60;2.40;;;;;;;19.26;100.00;96192.88;4994628;28;20220;-56
2023/08/30 10:38:26;;;;;;;2.10;2.00;;;;;;;18.95;100.00;96201.63;4993618;28;20234;-60
2023/08/30 10:40:54;;;;;;;1.80;1.80;;;;;;;19.05;100.00;96182.09;4994205;28;20200;-57
2023/08/30 10:43:35;;;;;;;2.47;2.27;;;;;;;19.12;100.00;96184.50;4996753;28;20303;-58
2023/08/30 10:46:03;;;;;;;2.20;1.63;;;;;;;18.95;100.00;96190.88;4996453;28;20220;-58
2023/08/30 10:48:38;;;;;;;3.00;1.70;;;;;;;18.88;100.00;96190.31;4941283;28;20225;-59
2023/08/30 10:51:20;;;;;;;2.30;2.10;;;;;;;18.81;100.00;96187.88;4996533;28;20231;-56
2023/08/30 10:53:58;;;;;;;3.10;1.53;;;;;;;18.88;100.00;96183.06;4991809;28;20205;-62
2023/08/30 10:56:30;;;;;;;4.70;2.20;;;;;;;19.11;100.00;96183.72;4997544;28;20263;-59
2023/08/30 10:58:59;;;;;;;1.73;1.63;;;;;;;19.17;100.00;96173.81;4991563;28;20232;-58
2023/08/30 11:01:28;;;;;;;2.03;1.93;;;;;;;18.80;100.00;96176.34;4998922;28;20204;-60
2023/08/30 11:03:56;;;;;;;1.87;1.77;;;;;;;18.85;100.00;96175.53;4992874;28;20523;-61
2023/08/30 11:06:43;;;;;;;2.23;2.10;;;;;;;18.85;100.00;96182.78;4999617;28;20668;-60
2023/08/30 11:09:11;;;;;;;2.73;2.50;;;;;;;18.89;100.00;96186.56;4882331;28;20241;-59
2023/08/30 11:11:39;;;;;;;2.33;2.23;;;;;;;18.68;100.00;96183.78;4996102;28;20233;-58
2023/08/30 11:14:08;;;;;;;2.00;1.90;;;;;;;18.51;100.00;96181.25;4994835;28;20665;-59
2023/08/30 11:16:37;;;;;;;2.60;2.20;;;;;;;18.35;100.00;96186.53;4997462;28;20197;-60
2023/08/30 11:19:05;;;;;;;2.50;2.40;;;;;;;18.10;100.00;96184.50;4988238;28;20672;-60
2023/08/30 11:21:34;;;;;;;2.43;2.23;;;;;;;18.09;100.00;96180.22;4997245;28;20229;-59
2023/08/30 11:24:04;;;;;;;3.10;2.80;;;;;;;18.25;100.00;96180.31;4940080;28;20209;-61
2023/08/30 11:26:31;;;;;;;2.27;2.17;;;;;;;18.36;100.00;96179.28;4997662;28;20201;-61
2023/08/30 11:29:04;;;;;;;2.60;2.50;;;;;;;18.63;100.00;96173.84;4991067;28;20237;-61
2023/08/30 11:31:34;;;;;;;2.40;2.30;;;;;;;18.61;100.00;96173.28;4997754;28;20331;-53